Time;durP1;ratioP1;P1;durP2;ratioP2;P2;SDS_P1;SDS_P2;PMS_P1;PMS_P2;Temp;Humidity;BMP_temperature;BMP_pressure;BME280_temperature;BME280_humidity;BME280_pressure;Samples;Min_cycle;Max_cycle;Signal;HPM_P1;HPM_P2
2022/09/27 00:00:41;;;;;;;2.17;1.23;;;16.10;65.60;;;;;;5051799;28;20076;-71
2022/09/27 00:03:08;;;;;;;3.05;1.38;;;16.10;65.60;;;;;;5059048;28;20386;-71
2022/09/27 00:05:36;;;;;;;2.13;1.27;;;16.10;65.60;;;;;;5072033;28;20048;-71
2022/09/27 00:08:03;;;;;;;2.33;1.40;;;16.10;65.60;;;;;;5072332;28;20062;-71
2022/09/27 00:10:30;;;;;;;1.83;1.30;;;16.10;65.60;;;;;;5072073;28;20500;-71
2022/09/27 00:12:58;;;;;;;1.90;1.30;;;16.10;65.60;;;;;;5072311;28;20048;-72
2022/09/27 00:15:24;;;;;;;1.50;1.20;;;16.10;65.60;;;;;;5071879;28;20052;-71
2022/09/27 00:17:51;;;;;;;1.48;1.13;;;16.10;65.60;;;;;;5065792;28;20490;-72
2022/09/27 00:20:19;;;;;;;1.95;1.20;;;16.10;65.60;;;;;;5052490;28;20041;-71
2022/09/27 00:22:47;;;;;;;1.60;1.23;;;16.10;65.60;;;;;;5052054;28;20064;-72
2022/09/27 00:25:14;;;;;;;1.50;1.20;;;16.10;65.60;;;;;;5052014;28;20061;-71
2022/09/27 00:27:41;;;;;;;2.28;1.30;;;16.20;68.00;;;;;;5051792;28;20063;-72
2022/09/27 00:30:09;;;;;;;1.42;1.10;;;16.10;65.60;;;;;;5051427;28;20501;-72
2022/09/27 00:32:36;;;;;;;1.63;1.08;;;16.00;65.50;;;;;;5060994;28;20166;-72
2022/09/27 00:35:03;;;;;;;2.15;1.30;;;16.00;65.60;;;;;;5073033;28;20071;-71
2022/09/27 00:37:29;;;;;;;1.42;1.17;;;16.10;65.60;;;;;;5071388;28;20135;-72
2022/09/27 00:39:57;;;;;;;2.13;1.20;;;16.00;65.60;;;;;;5071150;28;20048;-72
2022/09/27 00:42:24;;;;;;;2.20;1.20;;;16.00;65.60;;;;;;5071402;28;20060;-71
2022/09/27 00:45:03;;;;;;;2.25;1.27;;;16.00;65.60;;;;;;5072522;28;20066;-72
2022/09/27 00:47:32;;;;;;;1.65;1.20;;;16.00;65.50;;;;;;5060317;28;20060;-72
2022/09/27 00:50:01;;;;;;;1.88;1.00;;;16.00;65.60;;;;;;5052325;28;20052;-72
2022/09/27 00:52:29;;;;;;;2.33;1.08;;;16.00;65.60;;;;;;5051183;28;20147;-71
2022/09/27 00:54:58;;;;;;;1.88;1.05;;;16.00;65.60;;;;;;5051366;28;20049;-71
2022/09/27 00:57:25;;;;;;;1.05;0.90;;;16.00;65.60;;;;;;5051280;28;20490;-71
2022/09/27 00:59:53;;;;;;;1.75;1.20;;;16.00;65.60;;;;;;5050873;28;20060;-71
2022/09/27 01:02:20;;;;;;;1.00;0.80;;;16.00;65.60;;;;;;5066663;28;20059;-72
2022/09/27 01:04:48;;;;;;;1.50;0.98;;;16.00;65.60;;;;;;5072230;28;20449;-71
2022/09/27 01:07:15;;;;;;;1.15;0.90;;;16.10;66.80;;;;;;5071986;28;20048;-72
2022/09/27 01:09:41;;;;;;;1.42;1.08;;;16.00;65.60;;;;;;5069427;28;20045;-73
2022/09/27 01:12:20;;;;;;;1.25;1.00;;;16.00;65.60;;;;;;5070935;28;20057;-73
2022/09/27 01:14:55;;;;;;;1.38;0.90;;;16.00;65.50;;;;;;5071966;28;20052;-72
2022/09/27 01:17:29;;;;;;;1.73;1.08;;;16.00;65.60;;;;;;5070576;28;20058;-72
2022/09/27 01:20:15;;;;;;;1.27;0.90;;;16.00;65.60;;;;;;5070933;28;20059;-70
2022/09/27 01:22:44;;;;;;;1.58;0.90;;;16.00;65.60;;;;;;5070829;28;20056;-72
2022/09/27 01:25:29;;;;;;;1.20;0.93;;;16.00;65.60;;;;;;5072167;28;20055;-72
2022/09/27 01:28:12;;;;;;;1.15;1.00;;;16.00;65.50;;;;;;5057378;28;20048;-71
2022/09/27 01:30:43;;;;;;;3.03;1.00;;;16.00;66.10;;;;;;5047840;28;20072;-72
2022/09/27 01:33:26;;;;;;;1.20;0.98;;;15.90;65.50;;;;;;5047681;28;20087;-71
2022/09/27 01:36:19;;;;;;;1.02;0.93;;;16.00;65.50;;;;;;5050473;28;20056;-71
2022/09/27 01:38:53;;;;;;;0.95;0.85;;;16.00;65.50;;;;;;5037191;28;20596;-72
2022/09/27 01:41:25;;;;;;;1.83;1.10;;;15.90;65.60;;;;;;5051234;28;20049;-72
2022/09/27 01:43:55;;;;;;;1.10;1.00;;;14.10;64.60;;;;;;5049860;28;20055;-72
2022/09/27 01:46:25;;;;;;;1.80;1.00;;;15.90;65.50;;;;;;5049882;28;20059;-71
2022/09/27 01:48:52;;;;;;;1.48;0.90;;;16.00;65.60;;;;;;5051724;28;20409;-72
2022/09/27 01:51:19;;;;;;;1.15;1.00;;;15.90;65.50;;;;;;5051316;28;20051;-73
2022/09/27 01:53:47;;;;;;;1.00;0.82;;;15.90;65.50;;;;;;5050278;28;20053;-71
2022/09/27 01:56:15;;;;;;;1.48;0.90;;;15.90;65.50;;;;;;5050592;28;20060;-71
2022/09/27 01:58:44;;;;;;;1.40;0.98;;;15.90;65.50;;;;;;5050720;28;20411;-71
2022/09/27 02:01:11;;;;;;;1.00;0.90;;;15.90;65.50;;;;;;5050502;28;20057;-71
2022/09/27 02:03:40;;;;;;;1.50;0.93;;;15.90;65.50;;;;;;5056624;28;20055;-71
2022/09/27 02:06:09;;;;;;;1.05;0.88;;;15.90;65.50;;;;;;5071954;28;20049;-71
2022/09/27 02:08:38;;;;;;;1.80;0.90;;;15.90;65.50;;;;;;5071784;28;20067;-71
2022/09/27 02:11:07;;;;;;;1.10;0.90;;;15.90;66.00;;;;;;5061002;28;20409;-70
2022/09/27 02:13:37;;;;;;;1.00;0.90;;;15.90;65.50;;;;;;5050455;28;20079;-70
2022/09/27 02:16:06;;;;;;;1.20;0.80;;;15.90;65.50;;;;;;5050262;28;20494;-71
2022/09/27 02:18:34;;;;;;;1.23;0.90;;;15.90;65.50;;;;;;5057611;28;20424;-72
2022/09/27 02:21:03;;;;;;;1.33;0.80;;;15.90;65.50;;;;;;5069751;28;20091;-71
2022/09/27 02:23:34;;;;;;;1.05;0.90;;;15.90;65.50;;;;;;5071410;28;20059;-71
2022/09/27 02:26:02;;;;;;;1.33;1.05;;;15.90;65.50;;;;;;5069917;28;20076;-71
2022/09/27 02:28:30;;;;;;;1.00;0.90;;;15.90;65.50;;;;;;5070266;28;20061;-72
2022/09/27 02:30:57;;;;;;;1.33;1.13;;;15.90;65.50;;;;;;5070464;28;20087;-71
2022/09/27 02:33:26;;;;;;;2.30;1.05;;;15.90;65.50;;;;;;5059112;28;20059;-71
2022/09/27 02:35:53;;;;;;;1.02;0.75;;;15.90;65.50;;;;;;5050176;28;20048;-71
2022/09/27 02:38:21;;;;;;;0.98;0.75;;;15.90;65.50;;;;;;5050163;28;20438;-72
2022/09/27 02:40:48;;;;;;;1.00;0.70;;;15.90;65.50;;;;;;5052923;28;20052;-71
2022/09/27 02:43:16;;;;;;;1.00;0.80;;;15.90;65.50;;;;;;5055723;28;20053;-71
2022/09/27 02:45:48;;;;;;;1.05;0.80;;;15.90;65.50;;;;;;5053967;28;20059;-72
2022/09/27 02:48:19;;;;;;;1.92;0.98;;;15.90;65.50;;;;;;5067140;28;20075;-72
2022/09/27 02:51:01;;;;;;;1.67;1.00;;;15.80;65.50;;;;;;5073595;28;20056;-72
2022/09/27 02:53:35;;;;;;;0.85;0.77;;;15.90;65.50;;;;;;5073868;28;20145;-73
2022/09/27 02:56:07;;;;;;;1.45;0.95;;;15.90;65.50;;;;;;5073652;28;20063;-71
2022/09/27 02:58:39;;;;;;;1.05;0.80;;;15.80;65.50;;;;;;5073285;28;20119;-70
2022/09/27 03:01:08;;;;;;;1.65;0.90;;;15.80;65.50;;;;;;5073182;28;20134;-72
2022/09/27 03:03:37;;;;;;;1.25;0.80;;;15.80;65.50;;;;;;5053764;28;20076;-71
2022/09/27 03:06:05;;;;;;;1.52;1.00;;;15.80;65.50;;;;;;5053425;28;20445;-71
2022/09/27 03:08:33;;;;;;;0.82;0.70;;;15.80;65.50;;;;;;5053485;28;20049;-71
2022/09/27 03:11:00;;;;;;;0.80;0.77;;;15.80;65.40;;;;;;5052861;28;20513;-71
2022/09/27 03:13:27;;;;;;;0.85;0.73;;;15.80;65.50;;;;;;5054383;28;20124;-71
2022/09/27 03:15:53;;;;;;;1.00;0.80;;;15.80;65.40;;;;;;5054600;28;20052;-71
2022/09/27 03:18:20;;;;;;;1.50;0.77;;;15.80;65.40;;;;;;5074625;28;20420;-71
2022/09/27 03:20:47;;;;;;;1.52;0.80;;;15.80;65.40;;;;;;5073405;28;20048;-71
2022/09/27 03:23:14;;;;;;;1.15;0.80;;;15.80;65.40;;;;;;5073374;28;20060;-70
2022/09/27 03:25:42;;;;;;;0.63;0.57;;;15.80;65.40;;;;;;5073948;28;20398;-72
2022/09/27 03:28:09;;;;;;;0.63;0.63;;;15.80;65.40;;;;;;5072713;28;20048;-71
2022/09/27 03:30:36;;;;;;;1.35;1.10;;;15.80;65.40;;;;;;5067394;28;20041;-71
2022/09/27 03:33:03;;;;;;;0.85;0.77;;;15.80;65.40;;;;;;5053935;28;20045;-71
2022/09/27 03:35:30;;;;;;;1.58;0.82;;;15.80;65.40;;;;;;5052788;28;20119;-70
2022/09/27 03:37:56;;;;;;;0.98;0.70;;;15.80;65.40;;;;;;5052747;28;20383;-70
2022/09/27 03:40:23;;;;;;;1.30;0.82;;;15.80;65.40;;;;;;5052310;28;20053;-70
2022/09/27 03:42:51;;;;;;;0.93;0.73;;;15.80;65.40;;;;;;5052812;28;20516;-70
2022/09/27 03:45:18;;;;;;;1.48;0.80;;;15.80;65.40;;;;;;5058908;28;20080;-70
2022/09/27 03:47:45;;;;;;;1.30;0.80;;;15.80;65.40;;;;;;5072392;28;20056;-70
2022/09/27 03:50:11;;;;;;;0.55;0.55;;;15.80;65.40;;;;;;5072408;28;20052;-71
2022/09/27 03:52:38;;;;;;;0.98;0.82;;;15.80;65.40;;;;;;5071393;28;20056;-71
2022/09/27 03:55:06;;;;;;;0.98;0.73;;;15.80;65.40;;;;;;5072311;28;20406;-71
2022/09/27 03:57:32;;;;;;;1.33;0.77;;;15.80;65.40;;;;;;5072247;28;20056;-71
2022/09/27 04:00:01;;;;;;;1.27;0.82;;;15.70;65.30;;;;;;5063411;28;20470;-71
2022/09/27 04:02:28;;;;;;;0.90;0.70;;;15.80;65.40;;;;;;5052499;28;20438;-71
2022/09/27 04:04:54;;;;;;;0.70;0.70;;;16.00;68.20;;;;;;5052799;28;20413;-70
2022/09/27 04:07:22;;;;;;;1.20;0.73;;;15.80;65.90;;;;;;5053299;28;20092;-71
2022/09/27 04:09:49;;;;;;;0.98;0.70;;;15.80;65.40;;;;;;5053448;28;20045;-71
2022/09/27 04:12:15;;;;;;;0.77;0.70;;;15.70;65.30;;;;;;5053439;28;20049;-72
2022/09/27 04:14:42;;;;;;;1.30;0.70;;;15.70;65.30;;;;;;5061975;28;20421;-72
2022/09/27 04:17:10;;;;;;;0.70;0.70;;;15.70;65.30;;;;;;5073538;28;20045;-72
2022/09/27 04:19:38;;;;;;;0.93;0.60;;;15.70;65.30;;;;;;5073127;28;20505;-71
2022/09/27 04:22:05;;;;;;;0.98;0.80;;;15.70;65.30;;;;;;5071569;28;20147;-71
2022/09/27 04:24:32;;;;;;;0.98;0.80;;;15.80;65.40;;;;;;5071774;28;20054;-70
2022/09/27 04:26:59;;;;;;;0.60;0.60;;;16.10;66.50;;;;;;5071880;28;20063;-71
2022/09/27 04:29:26;;;;;;;1.08;0.70;;;15.70;65.30;;;;;;5060109;28;20132;-71
2022/09/27 04:31:52;;;;;;;0.52;0.52;;;15.70;65.30;;;;;;5065502;28;20413;-71
2022/09/27 04:36:25;;;;;;;1.00;0.70;;;15.70;65.30;;;;;;5064279;28;20048;-72
2022/09/27 04:37:07;;;;;;;0.50;0.50;;;15.70;65.30;;;;;;5072835;28;20097;-72
2022/09/27 04:39:35;;;;;;;0.65;0.65;;;15.70;65.30;;;;;;5072987;28;20048;-70
2022/09/27 04:42:02;;;;;;;1.38;0.73;;;15.70;65.30;;;;;;5072570;28;20079;-71
2022/09/27 04:44:29;;;;;;;0.70;0.70;;;15.70;65.30;;;;;;5071543;28;20111;-71
2022/09/27 04:46:55;;;;;;;1.13;0.77;;;15.70;65.30;;;;;;5053053;28;20128;-72
2022/09/27 04:49:24;;;;;;;1.30;0.80;;;15.70;65.30;;;;;;5053028;28;20159;-72
2022/09/27 04:51:50;;;;;;;0.90;0.60;;;15.70;65.30;;;;;;5051448;28;20099;-71
2022/09/27 04:54:17;;;;;;;0.52;0.50;;;15.70;65.30;;;;;;5051471;28;20053;-71
2022/09/27 04:56:44;;;;;;;1.25;0.55;;;15.70;65.30;;;;;;5052465;28;20389;-71
2022/09/27 04:59:10;;;;;;;0.88;0.70;;;15.70;65.30;;;;;;5052076;28;20045;-72
2022/09/27 05:01:37;;;;;;;1.00;0.60;;;15.70;65.30;;;;;;5069802;28;20052;-71
2022/09/27 05:04:04;;;;;;;1.15;0.70;;;15.70;65.30;;;;;;5072315;28;20135;-71
2022/09/27 05:06:32;;;;;;;1.00;0.70;;;15.70;65.20;;;;;;5072351;28;20127;-70
2022/09/27 05:08:58;;;;;;;2.10;0.70;;;15.70;65.20;;;;;;5071158;28;20056;-70
2022/09/27 05:11:25;;;;;;;0.98;0.70;;;15.70;65.30;;;;;;5070801;28;20059;-72
2022/09/27 05:13:52;;;;;;;0.40;0.40;;;15.70;65.30;;;;;;5071065;28;20064;-72
2022/09/27 05:16:19;;;;;;;1.13;0.77;;;15.70;65.30;;;;;;5050984;28;20068;-72
2022/09/27 05:18:45;;;;;;;0.98;0.77;;;15.70;65.30;;;;;;5051229;28;20063;-72
2022/09/27 05:21:12;;;;;;;1.15;1.00;;;15.70;65.30;;;;;;5052224;28;20051;-72
2022/09/27 05:23:40;;;;;;;0.68;0.60;;;15.70;65.30;;;;;;5052100;28;20441;-72
2022/09/27 05:26:07;;;;;;;0.70;0.60;;;15.70;65.30;;;;;;5052250;28;20150;-72
2022/09/27 05:28:34;;;;;;;1.20;0.70;;;15.70;65.30;;;;;;5052731;28;20089;-72
2022/09/27 05:31:00;;;;;;;1.60;0.80;;;15.70;65.20;;;;;;5070457;28;20049;-70
2022/09/27 05:33:27;;;;;;;0.60;0.60;;;15.70;65.20;;;;;;5070867;28;20059;-70
2022/09/27 05:35:54;;;;;;;1.05;0.68;;;15.70;65.20;;;;;;5071879;28;20049;-70
2022/09/27 05:38:20;;;;;;;0.70;0.50;;;15.70;65.20;;;;;;5070531;28;20063;-70
2022/09/27 05:40:50;;;;;;;0.80;0.60;;;15.70;65.30;;;;;;5070547;28;20359;-72
2022/09/27 05:43:17;;;;;;;0.50;0.50;;;15.60;65.20;;;;;;5065976;28;20057;-71
2022/09/27 05:45:43;;;;;;;0.60;0.60;;;15.70;65.30;;;;;;5050473;28;20056;-70
2022/09/27 05:48:11;;;;;;;1.15;0.60;;;15.60;65.20;;;;;;5051428;28;20056;-70
2022/09/27 05:50:38;;;;;;;0.60;0.60;;;15.60;65.20;;;;;;5050416;28;20398;-71
2022/09/27 05:53:05;;;;;;;1.02;0.70;;;15.60;65.20;;;;;;5051657;28;20052;-71
2022/09/27 05:55:31;;;;;;;0.60;0.60;;;15.70;65.20;;;;;;5050502;28;20489;-71
2022/09/27 05:58:00;;;;;;;0.90;0.60;;;15.70;65.20;;;;;;5056202;28;20108;-72
2022/09/27 06:00:27;;;;;;;0.70;0.43;;;15.70;65.20;;;;;;5070293;28;20048;-71
2022/09/27 06:02:55;;;;;;;0.80;0.70;;;15.70;65.20;;;;;;5070601;28;20139;-70
2022/09/27 06:05:22;;;;;;;2.20;0.52;;;15.70;65.20;;;;;;5070503;28;20052;-71
2022/09/27 06:07:49;;;;;;;0.75;0.50;;;15.70;65.20;;;;;;5070463;28;20398;-71
2022/09/27 06:10:16;;;;;;;0.50;0.50;;;15.60;65.10;;;;;;5069950;28;20080;-70
2022/09/27 06:12:43;;;;;;;1.35;0.75;;;15.70;65.20;;;;;;5061589;28;20063;-70
2022/09/27 06:15:11;;;;;;;0.73;0.60;;;15.70;65.10;;;;;;5050852;28;20410;-70
2022/09/27 06:17:38;;;;;;;1.75;0.63;;;15.70;65.10;;;;;;5054094;28;20052;-70
2022/09/27 06:20:06;;;;;;;1.17;0.60;;;15.70;65.10;;;;;;5054483;28;20049;-72
2022/09/27 06:22:33;;;;;;;0.60;0.60;;;15.70;65.10;;;;;;5055428;28;20131;-71
2022/09/27 06:24:59;;;;;;;0.63;0.47;;;15.70;67.80;;;;;;5054189;28;20052;-70
2022/09/27 06:27:26;;;;;;;0.60;0.60;;;15.60;65.10;;;;;;5053918;28;20057;-71
2022/09/27 06:29:54;;;;;;;0.73;0.70;;;15.70;65.10;;;;;;5066315;28;20509;-72
2022/09/27 06:32:22;;;;;;;0.80;0.70;;;15.70;65.10;;;;;;5074269;28;20048;-72
2022/09/27 06:34:49;;;;;;;0.50;0.50;;;15.70;65.10;;;;;;5075885;28;20055;-72
2022/09/27 06:37:16;;;;;;;1.10;0.60;;;15.40;66.40;;;;;;5064875;28;20053;-71
2022/09/27 06:39:42;;;;;;;1.85;0.52;;;15.70;65.10;;;;;;5054941;28;20053;-72
2022/09/27 06:42:09;;;;;;;1.98;0.60;;;15.70;65.10;;;;;;5054914;28;20482;-72
2022/09/27 06:44:36;;;;;;;1.10;0.70;;;15.70;65.10;;;;;;5055441;28;20409;-72
2022/09/27 06:47:03;;;;;;;0.90;0.63;;;15.70;65.10;;;;;;5056192;28;20150;-70
2022/09/27 06:49:31;;;;;;;0.90;0.60;;;15.70;65.00;;;;;;5054975;28;20045;-71
2022/09/27 06:51:58;;;;;;;0.70;0.63;;;16.40;67.80;;;;;;5053276;28;20052;-71
2022/09/27 06:54:25;;;;;;;0.65;0.50;;;15.70;65.00;;;;;;5054075;28;20552;-72
2022/09/27 06:56:51;;;;;;;0.93;0.70;;;15.70;65.00;;;;;;5066905;28;20078;-71
2022/09/27 07:02:03;;;;;;;0.55;0.55;;;15.70;65.00;;;;;;5073151;28;20490;-71
2022/09/27 07:04:31;;;;;;;0.93;0.70;;;15.80;65.00;;;;;;5073545;28;20105;-72
2022/09/27 07:06:58;;;;;;;1.23;0.80;;;15.80;65.00;;;;;;5073312;28;20060;-71
2022/09/27 07:09:25;;;;;;;0.68;0.68;;;15.80;65.00;;;;;;5073370;28;20052;-72
2022/09/27 07:11:54;;;;;;;1.45;0.85;;;15.90;65.00;;;;;;5089547;28;20049;-71
2022/09/27 07:14:20;;;;;;;0.98;0.60;;;15.90;65.00;;;;;;5073502;28;20481;-71
2022/09/27 07:16:47;;;;;;;1.30;0.80;;;15.90;64.90;;;;;;5073899;28;20055;-71
2022/09/27 07:19:14;;;;;;;2.38;0.70;;;16.00;65.00;;;;;;5074269;28;20056;-71
2022/09/27 07:21:42;;;;;;;1.42;0.75;;;16.00;64.90;;;;;;5053161;28;20132;-71
2022/09/27 07:24:09;;;;;;;0.70;0.70;;;16.00;64.90;;;;;;5054231;28;20069;-71
2022/09/27 07:26:36;;;;;;;0.95;0.75;;;16.10;64.90;;;;;;5073143;28;20080;-71
2022/09/27 07:29:02;;;;;;;1.63;0.80;;;16.10;64.80;;;;;;5072318;28;20056;-72
2022/09/27 07:31:29;;;;;;;0.82;0.70;;;15.10;64.20;;;;;;5063159;28;20557;-71
2022/09/27 07:33:56;;;;;;;1.50;0.88;;;16.20;64.70;;;;;;5054323;28;20409;-70
2022/09/27 07:36:23;;;;;;;1.58;0.80;;;16.20;64.60;;;;;;5052756;28;20061;-71
2022/09/27 07:38:51;;;;;;;1.13;0.80;;;16.30;64.60;;;;;;5055187;28;20421;-71
2022/09/27 07:41:18;;;;;;;0.63;0.63;;;16.30;64.50;;;;;;5055009;28;20049;-71
2022/09/27 07:43:44;;;;;;;1.55;0.95;;;16.30;64.40;;;;;;5053789;28;20634;-72
2022/09/27 07:46:12;;;;;;;1.20;0.73;;;16.40;64.40;;;;;;5050879;28;20063;-72
2022/09/27 07:48:39;;;;;;;1.67;0.70;;;16.40;64.30;;;;;;5052000;28;20077;-71
2022/09/27 07:51:09;;;;;;;1.20;0.80;;;16.40;64.30;;;;;;5053875;28;20080;-71
2022/09/27 07:53:36;;;;;;;1.00;0.80;;;16.40;64.20;;;;;;5056338;28;20064;-71
2022/09/27 07:56:05;;;;;;;1.73;0.77;;;16.50;64.20;;;;;;5054688;28;20401;-71
2022/09/27 07:58:31;;;;;;;1.40;0.70;;;16.50;64.10;;;;;;5052681;28;20136;-73
2022/09/27 08:00:59;;;;;;;1.15;0.90;;;16.50;64.10;;;;;;5053152;28;20053;-72
2022/09/27 08:03:25;;;;;;;1.20;0.82;;;16.50;64.10;;;;;;5053130;28;20053;-73
2022/09/27 08:05:52;;;;;;;0.95;0.80;;;16.60;64.10;;;;;;5053379;28;20502;-70
2022/09/27 08:08:19;;;;;;;1.25;0.68;;;16.60;64.10;;;;;;5060979;28;20070;-73
2022/09/27 08:10:46;;;;;;;1.55;0.90;;;16.60;64.00;;;;;;5056461;28;20053;-73
2022/09/27 08:13:16;;;;;;;1.33;0.80;;;16.60;64.00;;;;;;5053312;28;20490;-72
2022/09/27 08:15:43;;;;;;;0.60;0.50;;;16.70;64.00;;;;;;5054106;28;20057;-74
2022/09/27 08:18:10;;;;;;;2.20;0.50;;;16.70;64.00;;;;;;5052129;28;20049;-72
2022/09/27 08:20:36;;;;;;;0.60;0.60;;;16.70;64.00;;;;;;5051964;28;20482;-72
2022/09/27 08:23:03;;;;;;;1.08;0.68;;;16.80;64.00;;;;;;5049761;28;20044;-72
2022/09/27 08:25:30;;;;;;;1.73;0.80;;;16.70;63.90;;;;;;5050008;28;20052;-72
2022/09/27 08:27:57;;;;;;;1.27;0.73;;;16.80;63.90;;;;;;5052034;28;20057;-70
2022/09/27 08:30:25;;;;;;;1.77;0.60;;;16.90;63.90;;;;;;5052114;28;20049;-71
2022/09/27 08:32:55;;;;;;;0.60;0.60;;;16.80;63.80;;;;;;5052573;28;20403;-70
2022/09/27 08:35:22;;;;;;;0.85;0.70;;;16.90;63.80;;;;;;5050584;28;20080;-71
2022/09/27 08:37:53;;;;;;;3.22;0.88;;;16.90;63.80;;;;;;5049584;28;20049;-71
2022/09/27 08:40:22;;;;;;;3.00;0.90;;;16.90;63.80;;;;;;5049718;28;20061;-71
2022/09/27 08:42:52;;;;;;;3.40;0.80;;;16.90;63.70;;;;;;5051638;28;20263;-70
2022/09/27 08:45:23;;;;;;;0.70;0.60;;;17.00;63.80;;;;;;5050396;28;20468;-70
2022/09/27 08:47:53;;;;;;;1.80;0.80;;;17.00;63.80;;;;;;5050371;28;20049;-70
2022/09/27 08:50:25;;;;;;;3.63;0.90;;;17.00;63.70;;;;;;5051530;28;20098;-70
2022/09/27 08:52:53;;;;;;;2.97;0.70;;;17.00;63.70;;;;;;5051384;28;20518;-71
2022/09/27 08:55:27;;;;;;;1.73;0.80;;;17.00;63.60;;;;;;5052709;28;20131;-70
2022/09/27 08:57:56;;;;;;;2.50;0.80;;;17.00;63.60;;;;;;5051436;28;20062;-71
2022/09/27 09:00:23;;;;;;;0.98;0.70;;;17.00;63.60;;;;;;5052388;28;20131;-71
2022/09/27 09:02:49;;;;;;;2.15;0.80;;;17.10;63.60;;;;;;5050468;28;20049;-71
2022/09/27 09:05:21;;;;;;;0.75;0.70;;;17.10;63.60;;;;;;5050440;28;20049;-71
2022/09/27 09:08:15;;;;;;;1.42;0.70;;;17.10;63.50;;;;;;5050008;28;20049;-71
2022/09/27 09:13:51;;;;;;;2.13;0.82;;;17.10;63.50;;;;;;5050242;28;20045;-70
2022/09/27 09:16:21;;;;;;;1.33;1.00;;;17.10;63.50;;;;;;5047371;28;20387;-70
2022/09/27 09:18:56;;;;;;;1.63;0.80;;;17.20;63.50;;;;;;5050332;28;20067;-70
2022/09/27 09:21:27;;;;;;;1.52;0.90;;;17.20;63.50;;;;;;5049866;28;20063;-71
2022/09/27 09:24:16;;;;;;;2.15;0.80;;;17.20;63.40;;;;;;5050475;28;20049;-70
2022/09/27 09:26:45;;;;;;;2.33;0.88;;;17.20;63.40;;;;;;5050323;28;20067;-71
2022/09/27 09:29:25;;;;;;;1.98;0.90;;;17.20;63.40;;;;;;5051306;28;20055;-71
2022/09/27 09:31:56;;;;;;;1.50;0.70;;;17.30;63.50;;;;;;5050905;28;20405;-71
2022/09/27 09:34:24;;;;;;;1.80;0.68;;;17.30;63.40;;;;;;5049909;28;20148;-71
2022/09/27 09:36:55;;;;;;;1.48;0.70;;;17.30;63.40;;;;;;5051379;28;20075;-71
2022/09/27 09:39:23;;;;;;;0.68;0.57;;;17.30;63.40;;;;;;5058329;28;20060;-70
2022/09/27 09:41:59;;;;;;;1.15;0.65;;;17.30;63.40;;;;;;5069774;28;20049;-71
2022/09/27 09:44:27;;;;;;;1.50;0.90;;;17.30;63.40;;;;;;5070858;28;20044;-71
2022/09/27 09:46:56;;;;;;;1.67;0.70;;;17.30;63.40;;;;;;5069958;28;20095;-70
2022/09/27 09:49:23;;;;;;;1.23;0.80;;;17.30;63.50;;;;;;5069331;28;20060;-73
2022/09/27 09:51:55;;;;;;;1.27;0.80;;;17.10;63.40;;;;;;5068994;28;20049;-71
2022/09/27 09:54:24;;;;;;;1.17;0.80;;;17.30;63.50;;;;;;5059662;28;20057;-71
2022/09/27 09:56:52;;;;;;;0.88;0.70;;;17.30;63.50;;;;;;5071051;28;20048;-71
2022/09/27 09:59:20;;;;;;;1.55;0.80;;;17.30;63.60;;;;;;5070884;28;20045;-72
2022/09/27 10:01:47;;;;;;;1.92;0.82;;;17.30;63.60;;;;;;5034827;28;1033092;-72
2022/09/27 10:04:22;;;;;;;1.00;0.70;;;17.30;63.70;;;;;;5071899;28;20056;-72
2022/09/27 10:06:49;;;;;;;2.30;0.90;;;17.30;63.70;;;;;;5054831;28;20056;-73
2022/09/27 10:09:17;;;;;;;2.38;0.50;;;17.30;63.80;;;;;;5054855;28;20057;-71
2022/09/27 10:11:45;;;;;;;1.23;0.68;;;17.30;63.80;;;;;;5050298;28;20518;-71
2022/09/27 10:14:12;;;;;;;1.00;0.70;;;17.30;63.80;;;;;;5051377;28;20044;-71
2022/09/27 10:16:41;;;;;;;0.82;0.70;;;17.30;63.80;;;;;;5050749;28;20405;-72
2022/09/27 10:19:07;;;;;;;1.15;0.70;;;17.30;63.80;;;;;;5051643;28;20048;-72
2022/09/27 10:21:34;;;;;;;2.30;0.80;;;17.30;63.80;;;;;;5051175;28;20429;-71
2022/09/27 10:24:03;;;;;;;1.83;0.93;;;17.30;63.80;;;;;;5053965;28;20095;-71
2022/09/27 10:26:31;;;;;;;0.82;0.57;;;17.30;63.80;;;;;;5047786;28;20052;-73
2022/09/27 10:28:58;;;;;;;1.60;0.70;;;17.30;63.80;;;;;;5051233;28;20128;-72
2022/09/27 10:31:24;;;;;;;0.85;0.65;;;17.30;63.90;;;;;;5051044;28;20044;-71
2022/09/27 10:33:53;;;;;;;0.95;0.60;;;17.30;63.80;;;;;;5051287;28;20045;-73
2022/09/27 10:36:23;;;;;;;1.13;0.70;;;17.30;63.90;;;;;;5051424;28;20053;-72
2022/09/27 10:38:52;;;;;;;1.35;0.82;;;17.30;63.80;;;;;;5046713;28;20060;-71
2022/09/27 10:41:24;;;;;;;0.88;0.70;;;17.30;63.90;;;;;;5030298;28;20057;-71
2022/09/27 10:43:52;;;;;;;1.65;0.70;;;17.30;63.80;;;;;;5031576;28;20046;-71
2022/09/27 10:46:24;;;;;;;1.33;0.68;;;17.30;63.80;;;;;;5031460;28;20081;-71
2022/09/27 10:49:09;;;;;;;0.95;0.60;;;17.30;63.80;;;;;;5030137;28;20502;-72
2022/09/27 10:51:36;;;;;;;2.13;0.55;;;17.40;63.80;;;;;;5038523;28;20066;-71
2022/09/27 10:54:02;;;;;;;1.25;0.70;;;17.40;63.80;;;;;;5069967;28;20052;-72
2022/09/27 10:56:30;;;;;;;1.33;0.75;;;17.40;63.70;;;;;;5062310;28;20068;-69
2022/09/27 10:58:58;;;;;;;1.45;0.80;;;17.40;63.70;;;;;;5047361;28;20061;-73
2022/09/27 11:01:25;;;;;;;1.02;0.63;;;17.40;63.60;;;;;;5051489;28;20045;-72
2022/09/27 11:03:53;;;;;;;0.68;0.60;;;17.40;63.70;;;;;;5054705;28;20053;-73
2022/09/27 11:06:27;;;;;;;2.08;0.88;;;17.40;63.60;;;;;;5055695;28;20409;-71
2022/09/27 11:08:54;;;;;;;1.05;0.70;;;17.40;63.60;;;;;;5054423;28;20422;-71
2022/09/27 11:11:23;;;;;;;0.80;0.60;;;17.40;63.60;;;;;;5055459;28;20493;-71
2022/09/27 11:14:03;;;;;;;1.65;0.80;;;17.40;63.60;;;;;;5054123;28;20406;-71
2022/09/27 11:16:40;;;;;;;0.70;0.68;;;17.40;63.50;;;;;;5062118;28;20044;-71
2022/09/27 11:19:11;;;;;;;1.17;0.75;;;17.40;63.60;;;;;;5056061;28;20068;-71
2022/09/27 11:21:44;;;;;;;0.70;0.70;;;17.40;63.70;;;;;;5052932;28;20055;-71
2022/09/27 11:24:24;;;;;;;0.80;0.55;;;17.40;63.80;;;;;;5053264;28;20048;-71
2022/09/27 11:26:59;;;;;;;0.90;0.70;;;17.40;63.90;;;;;;5052902;28;20056;-71
2022/09/27 11:29:30;;;;;;;1.20;0.50;;;17.40;64.00;;;;;;5053247;28;20059;-71
2022/09/27 11:32:11;;;;;;;1.20;0.70;;;17.40;64.00;;;;;;5054013;28;20055;-70
2022/09/27 11:34:45;;;;;;;1.50;0.73;;;17.40;64.00;;;;;;5053919;28;20506;-71
2022/09/27 11:37:16;;;;;;;0.98;0.80;;;17.20;64.40;;;;;;5051815;28;20049;-71
2022/09/27 11:39:56;;;;;;;0.50;0.50;;;17.40;64.10;;;;;;5053066;28;20060;-71
2022/09/27 11:42:34;;;;;;;1.08;0.60;;;17.40;64.10;;;;;;5052227;28;20052;-71
2022/09/27 11:45:12;;;;;;;1.15;0.65;;;17.40;64.10;;;;;;5053617;28;20045;-71
2022/09/27 11:47:44;;;;;;;1.67;0.60;;;17.40;64.20;;;;;;5051282;28;20140;-70
2022/09/27 11:50:25;;;;;;;1.25;0.70;;;17.40;64.20;;;;;;5053242;28;20049;-71
2022/09/27 11:52:59;;;;;;;1.83;0.77;;;17.30;64.70;;;;;;5053900;28;20406;-71
2022/09/27 11:55:33;;;;;;;1.23;0.70;;;17.30;64.20;;;;;;5053640;28;20132;-70
2022/09/27 11:58:03;;;;;;;1.20;0.75;;;17.30;64.20;;;;;;5073127;28;20400;-71
2022/09/27 12:00:37;;;;;;;0.77;0.60;;;17.30;64.20;;;;;;5070779;28;20048;-71
2022/09/27 12:03:20;;;;;;;0.65;0.60;;;17.30;64.20;;;;;;5053689;28;20059;-71
2022/09/27 12:06:02;;;;;;;1.35;0.50;;;17.30;64.20;;;;;;5053340;28;20417;-70
2022/09/27 12:08:36;;;;;;;1.95;0.75;;;17.30;64.10;;;;;;5053494;28;20055;-69
2022/09/27 12:11:05;;;;;;;2.78;0.70;;;17.30;64.10;;;;;;5060215;28;20485;-71
2022/09/27 12:13:34;;;;;;;2.03;1.00;;;17.30;64.20;;;;;;5063810;28;20076;-72
2022/09/27 12:16:02;;;;;;;5.18;1.35;;;17.30;64.20;;;;;;5057885;28;20139;-72
2022/09/27 12:18:31;;;;;;;2.90;1.02;;;17.30;64.20;;;;;;5071919;28;20405;-72
2022/09/27 12:20:59;;;;;;;4.50;1.30;;;17.30;64.20;;;;;;5071427;28;20060;-72
2022/09/27 12:23:27;;;;;;;3.45;1.10;;;17.30;64.30;;;;;;5052800;28;20056;-72
2022/09/27 12:25:56;;;;;;;4.50;1.10;;;17.30;64.30;;;;;;5062980;28;20078;-71
2022/09/27 12:28:28;;;;;;;4.38;1.30;;;17.40;64.30;;;;;;5069223;28;20051;-71
2022/09/27 12:30:56;;;;;;;7.50;2.50;;;17.40;64.40;;;;;;5070381;28;20052;-72
2022/09/27 12:33:28;;;;;;;7.80;1.90;;;17.30;64.30;;;;;;5058673;28;20500;-71
2022/09/27 12:35:55;;;;;;;26.65;3.83;;;17.40;64.40;;;;;;5052878;28;20053;-71
2022/09/27 12:38:24;;;;;;;11.90;3.05;;;17.30;64.50;;;;;;5053012;28;20055;-72
2022/09/27 12:40:52;;;;;;;16.92;3.38;;;17.30;64.50;;;;;;5086115;28;20071;-71
2022/09/27 12:43:19;;;;;;;21.63;5.13;;;17.40;64.60;;;;;;5061862;28;20055;-71
2022/09/27 12:45:50;;;;;;;18.38;4.03;;;17.40;64.70;;;;;;5051723;28;20207;-72
2022/09/27 12:48:20;;;;;;;19.45;4.07;;;17.40;64.70;;;;;;5051630;28;20064;-73
2022/09/27 12:50:53;;;;;;;25.52;4.85;;;17.30;64.80;;;;;;5052129;28;20045;-73
2022/09/27 12:53:22;;;;;;;15.30;4.05;;;17.40;64.80;;;;;;5049295;28;20479;-72
2022/09/27 12:56:14;;;;;;;19.38;4.30;;;17.40;64.80;;;;;;5052341;28;20052;-72
2022/09/27 12:58:49;;;;;;;21.30;4.65;;;17.40;64.80;;;;;;5049618;28;20124;-72
2022/09/27 13:01:21;;;;;;;20.30;4.13;;;17.40;64.80;;;;;;5050143;28;20528;-72